sensor_id;sensor_type;location;lat;lon;timestamp;pressure;altitude;pressure_sealevel;temperature;humidity
50226;BME280;36113;50.742;6.432;2023-02-28T00:00:26;112741.81;;;-145.50;86.40
50226;BME280;36113;50.742;6.432;2023-02-28T00:02:52;112741.81;;;-145.50;86.65
50226;BME280;36113;50.742;6.432;2023-02-28T00:05:19;112741.81;;;-145.50;86.82
50226;BME280;36113;50.742;6.432;2023-02-28T00:07:45;112741.81;;;-145.50;86.93
50226;BME280;36113;50.742;6.432;2023-02-28T00:10:13;112741.81;;;-145.50;87.17
50226;BME280;36113;50.742;6.432;2023-02-28T00:12:39;112741.81;;;-145.50;86.93
50226;BME280;36113;50.742;6.432;2023-02-28T00:15:05;112741.81;;;-145.50;87.11
50226;BME280;36113;50.742;6.432;2023-02-28T00:17:31;112741.81;;;-145.50;87.20
50226;BME280;36113;50.742;6.432;2023-02-28T00:19:56;112741.81;;;-145.50;87.21
50226;BME280;36113;50.742;6.432;2023-02-28T00:22:26;112741.81;;;-145.50;87.22
50226;BME280;36113;50.742;6.432;2023-02-28T00:24:52;112741.81;;;-145.50;87.25
50226;BME280;36113;50.742;6.432;2023-02-28T00:27:17;112741.81;;;-145.50;87.20
50226;BME280;36113;50.742;6.432;2023-02-28T00:29:42;112741.81;;;-145.50;87.15
50226;BME280;36113;50.742;6.432;2023-02-28T00:32:08;112741.81;;;-145.50;87.30
50226;BME280;36113;50.742;6.432;2023-02-28T00:34:33;112741.81;;;-145.50;87.57
50226;BME280;36113;50.742;6.432;2023-02-28T00:37:06;112741.81;;;-145.50;87.45
50226;BME280;36113;50.742;6.432;2023-02-28T00:39:36;112741.81;;;-145.50;87.55
50226;BME280;36113;50.742;6.432;2023-02-28T00:42:01;112741.81;;;-145.50;87.42
50226;BME280;36113;50.742;6.432;2023-02-28T00:44:27;112741.81;;;-145.50;87.53
50226;BME280;36113;50.742;6.432;2023-02-28T00:46:53;112741.81;;;-145.50;87.97
50226;BME280;36113;50.742;6.432;2023-02-28T00:49:19;112741.81;;;-145.50;88.19
50226;BME280;36113;50.742;6.432;2023-02-28T00:51:45;112741.81;;;-145.50;88.40
50226;BME280;36113;50.742;6.432;2023-02-28T00:54:10;112741.81;;;-145.50;88.62
50226;BME280;36113;50.742;6.432;2023-02-28T00:56:36;112741.81;;;-145.50;88.72
50226;BME280;36113;50.742;6.432;2023-02-28T00:59:01;112741.81;;;-145.50;88.67
50226;BME280;36113;50.742;6.432;2023-02-28T01:01:26;112741.81;;;-145.50;88.77
50226;BME280;36113;50.742;6.432;2023-02-28T01:03:52;112741.81;;;-145.50;88.69
50226;BME280;36113;50.742;6.432;2023-02-28T01:06:17;112741.81;;;-145.50;88.99
50226;BME280;36113;50.742;6.432;2023-02-28T01:08:42;112741.81;;;-145.50;89.15
50226;BME280;36113;50.742;6.432;2023-02-28T01:11:12;112741.81;;;-145.50;89.32
50226;BME280;36113;50.742;6.432;2023-02-28T01:13:40;112741.81;;;-145.50;89.44
50226;BME280;36113;50.742;6.432;2023-02-28T01:16:05;112741.81;;;-145.50;89.39
50226;BME280;36113;50.742;6.432;2023-02-28T01:18:31;112741.81;;;-145.50;89.51
50226;BME280;36113;50.742;6.432;2023-02-28T01:20:56;112741.81;;;-145.50;89.52
50226;BME280;36113;50.742;6.432;2023-02-28T01:23:22;112741.81;;;-145.50;89.84
50226;BME280;36113;50.742;6.432;2023-02-28T01:25:49;112741.81;;;-145.50;89.76
50226;BME280;36113;50.742;6.432;2023-02-28T01:28:15;112741.81;;;-145.50;89.94
50226;BME280;36113;50.742;6.432;2023-02-28T01:30:40;112741.81;;;-145.50;89.81
50226;BME280;36113;50.742;6.432;2023-02-28T01:33:06;112741.81;;;-145.50;89.80
50226;BME280;36113;50.742;6.432;2023-02-28T01:35:35;112741.81;;;-145.50;89.62
50226;BME280;36113;50.742;6.432;2023-02-28T01:38:01;112741.81;;;-145.50;89.63
50226;BME280;36113;50.742;6.432;2023-02-28T01:40:26;112741.81;;;-145.50;89.37
50226;BME280;36113;50.742;6.432;2023-02-28T01:42:51;112741.81;;;-145.50;89.42
50226;BME280;36113;50.742;6.432;2023-02-28T01:45:28;112741.81;;;-145.50;89.63
50226;BME280;36113;50.742;6.432;2023-02-28T01:47:58;112741.81;;;-145.50;89.56
50226;BME280;36113;50.742;6.432;2023-02-28T01:50:28;112741.81;;;-145.50;89.67
50226;BME280;36113;50.742;6.432;2023-02-28T01:52:59;112741.81;;;-145.50;89.68
50226;BME280;36113;50.742;6.432;2023-02-28T01:55:28;112741.81;;;-145.50;89.66
50226;BME280;36113;50.742;6.432;2023-02-28T01:57:56;112741.81;;;-145.50;89.60
50226;BME280;36113;50.742;6.432;2023-02-28T02:00:24;112741.81;;;-145.50;89.68
50226;BME280;36113;50.742;6.432;2023-02-28T02:02:55;112741.81;;;-145.50;89.87
50226;BME280;36113;50.742;6.432;2023-02-28T02:05:24;112741.81;;;-145.50;89.90
50226;BME280;36113;50.742;6.432;2023-02-28T02:07:52;112741.81;;;-145.50;89.68
50226;BME280;36113;50.742;6.432;2023-02-28T02:10:43;112741.81;;;-145.50;89.67
50226;BME280;36113;50.742;6.432;2023-02-28T02:13:37;112741.81;;;-145.50;89.63
50226;BME280;36113;50.742;6.432;2023-02-28T02:18:42;112741.81;;;-145.50;90.01
50226;BME280;36113;50.742;6.432;2023-02-28T02:32:12;112741.81;;;-145.50;90.74
50226;BME280;36113;50.742;6.432;2023-02-28T02:34:56;112741.81;;;-145.50;90.78
50226;BME280;36113;50.742;6.432;2023-02-28T02:40:19;112741.81;;;-145.50;90.49
50226;BME280;36113;50.742;6.432;2023-02-28T02:43:06;112741.81;;;-145.50;90.28
50226;BME280;36113;50.742;6.432;2023-02-28T02:45:44;112741.81;;;-145.50;90.64
50226;BME280;36113;50.742;6.432;2023-02-28T02:48:14;112741.81;;;-145.50;90.80
50226;BME280;36113;50.742;6.432;2023-02-28T02:50:46;112741.81;;;-145.50;91.00
50226;BME280;36113;50.742;6.432;2023-02-28T02:53:15;112741.81;;;-145.50;90.60
50226;BME280;36113;50.742;6.432;2023-02-28T02:55:44;112741.81;;;-145.50;90.93
50226;BME280;36113;50.742;6.432;2023-02-28T02:58:14;112741.81;;;-145.50;90.94
50226;BME280;36113;50.742;6.432;2023-02-28T03:00:50;112741.81;;;-145.50;91.02
50226;BME280;36113;50.742;6.432;2023-02-28T03:03:19;112741.81;;;-145.50;91.25
50226;BME280;36113;50.742;6.432;2023-02-28T03:05:54;112741.81;;;-145.50;90.79
50226;BME280;36113;50.742;6.432;2023-02-28T03:08:20;112741.81;;;-145.50;90.88
50226;BME280;36113;50.742;6.432;2023-02-28T03:10:48;112741.81;;;-145.50;90.98
50226;BME280;36113;50.742;6.432;2023-02-28T03:13:38;112741.81;;;-145.50;90.71
50226;BME280;36113;50.742;6.432;2023-02-28T03:16:22;112741.81;;;-145.50;90.73
50226;BME280;36113;50.742;6.432;2023-02-28T03:21:37;112741.81;;;-145.50;91.22
50226;BME280;36113;50.742;6.432;2023-02-28T03:24:10;112741.81;;;-145.50;90.80
50226;BME280;36113;50.742;6.432;2023-02-28T03:26:43;112741.81;;;-145.50;90.70
50226;BME280;36113;50.742;6.432;2023-02-28T03:31:50;112741.81;;;-145.50;90.25
50226;BME280;36113;50.742;6.432;2023-02-28T03:34:23;112741.81;;;-145.50;90.33
50226;BME280;36113;50.742;6.432;2023-02-28T03:36:55;112741.81;;;-145.50;90.23
50226;BME280;36113;50.742;6.432;2023-02-28T03:39:30;112741.81;;;-145.50;90.03
50226;BME280;36113;50.742;6.432;2023-02-28T03:42:03;112741.81;;;-145.50;90.30
50226;BME280;36113;50.742;6.432;2023-02-28T03:44:33;112741.81;;;-145.50;90.11
50226;BME280;36113;50.742;6.432;2023-02-28T03:47:04;112741.81;;;-145.50;89.76
50226;BME280;36113;50.742;6.432;2023-02-28T03:49:56;112741.81;;;-145.50;89.86
50226;BME280;36113;50.742;6.432;2023-02-28T03:52:27;112741.81;;;-145.50;89.99
50226;BME280;36113;50.742;6.432;2023-02-28T03:54:56;112741.81;;;-145.50;90.24
50226;BME280;36113;50.742;6.432;2023-02-28T04:00:27;112741.81;;;-145.50;90.25
50226;BME280;36113;50.742;6.432;2023-02-28T04:02:54;112741.81;;;-145.50;90.35
50226;BME280;36113;50.742;6.432;2023-02-28T04:05:20;112741.81;;;-145.50;90.49
50226;BME280;36113;50.742;6.432;2023-02-28T04:07:46;112741.81;;;-145.50;90.58
50226;BME280;36113;50.742;6.432;2023-02-28T04:10:13;112741.81;;;-145.50;90.50
50226;BME280;36113;50.742;6.432;2023-02-28T04:12:39;112741.81;;;-145.50;90.51
50226;BME280;36113;50.742;6.432;2023-02-28T04:15:05;112741.81;;;-145.50;90.78
50226;BME280;36113;50.742;6.432;2023-02-28T04:17:31;112741.81;;;-145.50;90.66
50226;BME280;36113;50.742;6.432;2023-02-28T04:19:56;112741.81;;;-145.50;90.80
50226;BME280;36113;50.742;6.432;2023-02-28T04:22:22;112741.81;;;-145.50;90.90
50226;BME280;36113;50.742;6.432;2023-02-28T04:24:47;112741.81;;;-145.50;91.08
50226;BME280;36113;50.742;6.432;2023-02-28T04:27:12;112741.81;;;-145.50;90.72
50226;BME280;36113;50.742;6.432;2023-02-28T04:29:40;112741.81;;;-145.50;90.73
50226;BME280;36113;50.742;6.432;2023-02-28T04:32:10;112741.81;;;-145.50;90.67
50226;BME280;36113;50.742;6.432;2023-02-28T04:34:35;112741.81;;;-145.50;90.72
50226;BME280;36113;50.742;6.432;2023-02-28T04:37:01;112741.81;;;-145.50;90.90
50226;BME280;36113;50.742;6.432;2023-02-28T04:39:26;112741.81;;;-145.50;91.18
50226;BME280;36113;50.742;6.432;2023-02-28T04:41:52;112741.81;;;-145.50;91.10
50226;BME280;36113;50.742;6.432;2023-02-28T04:44:17;112741.81;;;-145.50;90.91
50226;BME280;36113;50.742;6.432;2023-02-28T04:46:43;112741.81;;;-145.50;90.95
50226;BME280;36113;50.742;6.432;2023-02-28T04:49:11;112741.81;;;-145.50;91.10
50226;BME280;36113;50.742;6.432;2023-02-28T04:51:36;112741.81;;;-145.50;91.20
50226;BME280;36113;50.742;6.432;2023-02-28T04:54:02;112741.81;;;-145.50;91.22
50226;BME280;36113;50.742;6.432;2023-02-28T04:56:27;112741.81;;;-145.50;91.25
50226;BME280;36113;50.742;6.432;2023-02-28T04:58:52;112741.81;;;-145.50;91.22
50226;BME280;36113;50.742;6.432;2023-02-28T05:01:26;112741.81;;;-145.50;91.31
50226;BME280;36113;50.742;6.432;2023-02-28T05:03:53;112741.81;;;-145.50;91.15
50226;BME280;36113;50.742;6.432;2023-02-28T05:06:20;112741.81;;;-145.50;90.85
50226;BME280;36113;50.742;6.432;2023-02-28T05:08:46;112741.81;;;-145.50;90.97
50226;BME280;36113;50.742;6.432;2023-02-28T05:11:17;112741.81;;;-145.50;91.03
50226;BME280;36113;50.742;6.432;2023-02-28T05:13:43;112741.81;;;-145.50;91.07
50226;BME280;36113;50.742;6.432;2023-02-28T05:16:09;112741.81;;;-145.50;91.10
50226;BME280;36113;50.742;6.432;2023-02-28T05:18:34;112741.81;;;-145.50;90.88
50226;BME280;36113;50.742;6.432;2023-02-28T05:21:00;112741.81;;;-145.50;91.05
50226;BME280;36113;50.742;6.432;2023-02-28T05:23:27;112741.81;;;-145.50;91.37
50226;BME280;36113;50.742;6.432;2023-02-28T05:25:52;112741.81;;;-145.50;90.97
50226;BME280;36113;50.742;6.432;2023-02-28T05:28:19;112741.81;;;-145.50;90.83
50226;BME280;36113;50.742;6.432;2023-02-28T05:30:44;112741.81;;;-145.50;90.83
50226;BME280;36113;50.742;6.432;2023-02-28T05:33:11;112741.81;;;-145.50;90.48
50226;BME280;36113;50.742;6.432;2023-02-28T05:35:38;112741.81;;;-145.50;90.33
50226;BME280;36113;50.742;6.432;2023-02-28T05:38:04;112741.81;;;-145.50;90.50
50226;BME280;36113;50.742;6.432;2023-02-28T05:40:29;112741.81;;;-145.50;90.45
50226;BME280;36113;50.742;6.432;2023-02-28T05:42:54;112741.81;;;-145.50;90.58
50226;BME280;36113;50.742;6.432;2023-02-28T05:45:20;112741.81;;;-145.50;90.85
50226;BME280;36113;50.742;6.432;2023-02-28T05:47:45;112741.81;;;-145.50;90.65
50226;BME280;36113;50.742;6.432;2023-02-28T05:50:10;112741.81;;;-145.50;90.55
50226;BME280;36113;50.742;6.432;2023-02-28T05:52:36;112741.81;;;-145.50;90.50
50226;BME280;36113;50.742;6.432;2023-02-28T05:55:02;112741.81;;;-145.50;90.60
50226;BME280;36113;50.742;6.432;2023-02-28T05:57:28;112741.81;;;-145.50;90.59
50226;BME280;36113;50.742;6.432;2023-02-28T05:59:53;112741.81;;;-145.50;90.64
50226;BME280;36113;50.742;6.432;2023-02-28T06:02:18;112741.81;;;-145.50;90.83
50226;BME280;36113;50.742;6.432;2023-02-28T06:04:44;112741.81;;;-145.50;90.84
50226;BME280;36113;50.742;6.432;2023-02-28T06:07:10;112741.81;;;-145.50;91.00
50226;BME280;36113;50.742;6.432;2023-02-28T06:09:36;112741.81;;;-145.50;90.76
50226;BME280;36113;50.742;6.432;2023-02-28T06:12:03;112741.81;;;-145.50;90.87
50226;BME280;36113;50.742;6.432;2023-02-28T06:14:31;112741.81;;;-145.50;90.83
50226;BME280;36113;50.742;6.432;2023-02-28T06:16:57;112741.81;;;-145.50;91.01
50226;BME280;36113;50.742;6.432;2023-02-28T06:19:24;112741.81;;;-145.50;91.34
50226;BME280;36113;50.742;6.432;2023-02-28T06:21:53;112741.81;;;-145.50;91.52
50226;BME280;36113;50.742;6.432;2023-02-28T06:24:22;112741.81;;;-145.50;91.55
50226;BME280;36113;50.742;6.432;2023-02-28T06:26:48;112741.81;;;-145.50;91.59
50226;BME280;36113;50.742;6.432;2023-02-28T06:29:14;112741.81;;;-145.50;91.63
50226;BME280;36113;50.742;6.432;2023-02-28T06:31:44;112741.81;;;-145.50;91.42
50226;BME280;36113;50.742;6.432;2023-02-28T06:34:10;112741.81;;;-145.50;91.49
50226;BME280;36113;50.742;6.432;2023-02-28T06:36:37;112741.81;;;-145.50;91.34
50226;BME280;36113;50.742;6.432;2023-02-28T06:39:03;112741.81;;;-145.50;91.42
50226;BME280;36113;50.742;6.432;2023-02-28T06:41:28;112741.81;;;-145.50;91.42
50226;BME280;36113;50.742;6.432;2023-02-28T06:43:53;112741.81;;;-145.50;91.54
50226;BME280;36113;50.742;6.432;2023-02-28T06:46:19;112741.81;;;-145.50;91.47
50226;BME280;36113;50.742;6.432;2023-02-28T06:48:45;112741.81;;;-145.50;91.35
50226;BME280;36113;50.742;6.432;2023-02-28T06:51:13;112741.81;;;-145.50;91.44
50226;BME280;36113;50.742;6.432;2023-02-28T06:53:39;112741.81;;;-145.50;91.15
50226;BME280;36113;50.742;6.432;2023-02-28T06:56:06;112741.81;;;-145.50;91.27
50226;BME280;36113;50.742;6.432;2023-02-28T06:58:33;112741.81;;;-145.50;91.34
50226;BME280;36113;50.742;6.432;2023-02-28T07:00:58;112741.81;;;-145.50;91.01
50226;BME280;36113;50.742;6.432;2023-02-28T07:03:23;112741.81;;;-145.50;90.80
50226;BME280;36113;50.742;6.432;2023-02-28T07:05:49;112741.81;;;-145.50;90.56
50226;BME280;36113;50.742;6.432;2023-02-28T07:08:15;112741.81;;;-145.50;90.23
50226;BME280;36113;50.742;6.432;2023-02-28T07:10:41;112741.81;;;-145.50;90.18
50226;BME280;36113;50.742;6.432;2023-02-28T07:13:07;112741.81;;;-145.50;89.81
50226;BME280;36113;50.742;6.432;2023-02-28T07:15:33;112741.81;;;-145.50;89.58
50226;BME280;36113;50.742;6.432;2023-02-28T07:17:59;112741.81;;;-145.50;89.30
50226;BME280;36113;50.742;6.432;2023-02-28T07:20:24;112741.81;;;-145.50;88.64
50226;BME280;36113;50.742;6.432;2023-02-28T07:22:50;112741.81;;;-145.50;87.94
50226;BME280;36113;50.742;6.432;2023-02-28T07:25:25;112741.81;;;-145.50;87.46
50226;BME280;36113;50.742;6.432;2023-02-28T07:27:51;112741.81;;;-145.50;86.86
50226;BME280;36113;50.742;6.432;2023-02-28T07:30:16;112741.81;;;-145.50;86.35
50226;BME280;36113;50.742;6.432;2023-02-28T07:32:42;112741.81;;;-145.50;85.86
50226;BME280;36113;50.742;6.432;2023-02-28T07:35:10;112741.81;;;-145.50;85.31
50226;BME280;36113;50.742;6.432;2023-02-28T07:37:36;112741.81;;;-145.50;84.93
50226;BME280;36113;50.742;6.432;2023-02-28T07:40:05;112741.81;;;-145.50;84.66
50226;BME280;36113;50.742;6.432;2023-02-28T07:42:33;112741.81;;;-145.50;84.79
50226;BME280;36113;50.742;6.432;2023-02-28T07:44:59;112741.81;;;-145.50;84.64
50226;BME280;36113;50.742;6.432;2023-02-28T07:47:24;112741.81;;;-145.50;84.19
50226;BME280;36113;50.742;6.432;2023-02-28T07:49:50;112741.81;;;-145.50;83.25
50226;BME280;36113;50.742;6.432;2023-02-28T07:52:18;112741.81;;;-145.50;82.12
50226;BME280;36113;50.742;6.432;2023-02-28T07:54:43;112741.81;;;-145.50;81.59
50226;BME280;36113;50.742;6.432;2023-02-28T07:57:11;112741.81;;;-145.50;81.44
50226;BME280;36113;50.742;6.432;2023-02-28T07:59:37;112741.81;;;-145.50;80.73
50226;BME280;36113;50.742;6.432;2023-02-28T08:02:02;112741.81;;;-145.50;79.75
50226;BME280;36113;50.742;6.432;2023-02-28T08:04:27;112741.81;;;-145.50;79.19
50226;BME280;36113;50.742;6.432;2023-02-28T08:06:54;112741.81;;;-145.50;79.03
50226;BME280;36113;50.742;6.432;2023-02-28T08:09:21;112741.81;;;-145.50;78.51
50226;BME280;36113;50.742;6.432;2023-02-28T08:11:47;112741.81;;;-145.50;77.13
50226;BME280;36113;50.742;6.432;2023-02-28T08:14:15;112741.81;;;-145.50;77.54
50226;BME280;36113;50.742;6.432;2023-02-28T08:16:40;112741.81;;;-145.50;77.31
50226;BME280;36113;50.742;6.432;2023-02-28T08:19:08;112741.81;;;-145.50;77.19
50226;BME280;36113;50.742;6.432;2023-02-28T08:21:33;112741.81;;;-145.50;75.24
50226;BME280;36113;50.742;6.432;2023-02-28T08:23:59;112741.81;;;-145.50;75.25
50226;BME280;36113;50.742;6.432;2023-02-28T08:26:24;112741.81;;;-145.50;75.14
50226;BME280;36113;50.742;6.432;2023-02-28T08:28:49;112741.81;;;-145.50;73.04
50226;BME280;36113;50.742;6.432;2023-02-28T08:31:16;112741.81;;;-145.50;74.22
50226;BME280;36113;50.742;6.432;2023-02-28T08:33:43;112741.81;;;-145.50;74.62
50226;BME280;36113;50.742;6.432;2023-02-28T08:36:10;112741.81;;;-145.50;74.24
50226;BME280;36113;50.742;6.432;2023-02-28T08:38:36;112741.81;;;-145.50;73.72
50226;BME280;36113;50.742;6.432;2023-02-28T08:41:04;112741.81;;;-145.50;72.31
50226;BME280;36113;50.742;6.432;2023-02-28T08:43:33;112741.81;;;-145.50;72.60
50226;BME280;36113;50.742;6.432;2023-02-28T08:45:58;112741.81;;;-145.50;73.40
50226;BME280;36113;50.742;6.432;2023-02-28T08:48:28;112741.81;;;-145.50;72.96
50226;BME280;36113;50.742;6.432;2023-02-28T08:51:03;112741.81;;;-145.50;71.81
50226;BME280;36113;50.742;6.432;2023-02-28T08:53:29;112741.81;;;-145.50;70.30
50226;BME280;36113;50.742;6.432;2023-02-28T08:56:08;112741.81;;;-145.50;71.27
50226;BME280;36113;50.742;6.432;2023-02-28T08:58:35;112741.81;;;-145.50;71.52
50226;BME280;36113;50.742;6.432;2023-02-28T09:01:06;112741.81;;;-145.50;70.87
50226;BME280;36113;50.742;6.432;2023-02-28T09:03:31;112741.81;;;-145.50;70.41
50226;BME280;36113;50.742;6.432;2023-02-28T09:05:59;112741.81;;;-145.50;69.99
50226;BME280;36113;50.742;6.432;2023-02-28T09:08:29;112741.81;;;-145.50;69.02
50226;BME280;36113;50.742;6.432;2023-02-28T09:10:55;112741.81;;;-145.50;67.32
50226;BME280;36113;50.742;6.432;2023-02-28T09:13:23;112741.81;;;-145.50;66.11
50226;BME280;36113;50.742;6.432;2023-02-28T09:15:52;112741.81;;;-145.50;63.18
50226;BME280;36113;50.742;6.432;2023-02-28T09:18:17;112741.81;;;-145.50;61.56
50226;BME280;36113;50.742;6.432;2023-02-28T09:20:43;112741.81;;;-145.50;62.25
50226;BME280;36113;50.742;6.432;2023-02-28T09:23:10;112741.81;;;-145.50;62.26
50226;BME280;36113;50.742;6.432;2023-02-28T09:25:36;112741.81;;;-145.50;58.80
50226;BME280;36113;50.742;6.432;2023-02-28T09:28:02;112741.81;;;-145.50;59.14
50226;BME280;36113;50.742;6.432;2023-02-28T09:30:27;112741.81;;;-145.50;58.70
50226;BME280;36113;50.742;6.432;2023-02-28T09:32:53;112741.81;;;-145.50;58.49
50226;BME280;36113;50.742;6.432;2023-02-28T09:35:23;112741.81;;;-145.50;56.92
50226;BME280;36113;50.742;6.432;2023-02-28T09:37:49;112741.81;;;-145.50;56.86
50226;BME280;36113;50.742;6.432;2023-02-28T09:40:17;112741.81;;;-145.50;55.74
50226;BME280;36113;50.742;6.432;2023-02-28T09:42:47;112741.81;;;-145.50;57.07
50226;BME280;36113;50.742;6.432;2023-02-28T09:45:25;112741.81;;;-145.50;53.61
50226;BME280;36113;50.742;6.432;2023-02-28T09:47:54;112741.81;;;-145.50;52.26
50226;BME280;36113;50.742;6.432;2023-02-28T09:50:29;112741.81;;;-145.50;49.17
50226;BME280;36113;50.742;6.432;2023-02-28T09:52:58;112741.81;;;-145.50;50.15
50226;BME280;36113;50.742;6.432;2023-02-28T09:58:01;112741.81;;;-145.50;47.35
50226;BME280;36113;50.742;6.432;2023-02-28T10:00:39;112741.81;;;-145.50;48.47
50226;BME280;36113;50.742;6.432;2023-02-28T10:03:28;112741.81;;;-145.50;47.27
50226;BME280;36113;50.742;6.432;2023-02-28T10:06:17;112741.81;;;-145.50;46.97
50226;BME280;36113;50.742;6.432;2023-02-28T10:09:04;112741.81;;;-145.50;47.07
50226;BME280;36113;50.742;6.432;2023-02-28T10:11:33;112741.81;;;-145.50;46.65
50226;BME280;36113;50.742;6.432;2023-02-28T10:16:43;112741.81;;;-145.50;45.39
50226;BME280;36113;50.742;6.432;2023-02-28T10:21:59;112741.81;;;-145.50;44.45
50226;BME280;36113;50.742;6.432;2023-02-28T10:24:35;112741.81;;;-145.50;44.63
50226;BME280;36113;50.742;6.432;2023-02-28T10:27:30;112741.81;;;-145.50;43.93
50226;BME280;36113;50.742;6.432;2023-02-28T10:29:59;112741.81;;;-145.50;43.92
50226;BME280;36113;50.742;6.432;2023-02-28T10:32:32;112741.81;;;-145.50;45.14
50226;BME280;36113;50.742;6.432;2023-02-28T10:37:40;112741.81;;;-145.50;43.79
50226;BME280;36113;50.742;6.432;2023-02-28T10:43:19;112741.81;;;-145.50;42.54
50226;BME280;36113;50.742;6.432;2023-02-28T10:49:01;112741.81;;;-145.50;42.91
50226;BME280;36113;50.742;6.432;2023-02-28T10:51:35;112741.81;;;-145.50;43.43
50226;BME280;36113;50.742;6.432;2023-02-28T10:54:02;112741.81;;;-145.50;43.44
50226;BME280;36113;50.742;6.432;2023-02-28T10:56:31;112741.81;;;-145.50;43.95
50226;BME280;36113;50.742;6.432;2023-02-28T10:59:26;112741.81;;;-145.50;43.89
50226;BME280;36113;50.742;6.432;2023-02-28T11:01:51;112741.81;;;-145.50;42.11
50226;BME280;36113;50.742;6.432;2023-02-28T11:04:31;112741.81;;;-145.50;42.70
50226;BME280;36113;50.742;6.432;2023-02-28T11:07:21;112741.81;;;-145.50;43.19
50226;BME280;36113;50.742;6.432;2023-02-28T11:09:52;112741.81;;;-145.50;43.44
50226;BME280;36113;50.742;6.432;2023-02-28T11:12:28;112741.81;;;-145.50;42.61
50226;BME280;36113;50.742;6.432;2023-02-28T11:14:59;112741.81;;;-145.50;43.71
50226;BME280;36113;50.742;6.432;2023-02-28T11:17:29;112741.81;;;-145.50;43.97
50226;BME280;36113;50.742;6.432;2023-02-28T11:20:22;112741.81;;;-145.50;42.43
50226;BME280;36113;50.742;6.432;2023-02-28T11:22:50;112741.81;;;-145.50;42.78
50226;BME280;36113;50.742;6.432;2023-02-28T11:25:45;112741.81;;;-145.50;42.59
50226;BME280;36113;50.742;6.432;2023-02-28T11:28:30;112741.81;;;-145.50;41.81
50226;BME280;36113;50.742;6.432;2023-02-28T11:33:54;112741.81;;;-145.50;42.04
50226;BME280;36113;50.742;6.432;2023-02-28T11:36:24;112741.81;;;-145.50;42.62
50226;BME280;36113;50.742;6.432;2023-02-28T11:38:51;112741.81;;;-145.50;42.10
50226;BME280;36113;50.742;6.432;2023-02-28T11:44:27;112741.81;;;-145.50;41.86
50226;BME280;36113;50.742;6.432;2023-02-28T11:47:15;112741.81;;;-145.50;41.45
50226;BME280;36113;50.742;6.432;2023-02-28T11:50:18;112741.81;;;-145.50;41.86
50226;BME280;36113;50.742;6.432;2023-02-28T11:55:17;112741.81;;;-145.50;41.26
50226;BME280;36113;50.742;6.432;2023-02-28T11:57:59;112741.81;;;-145.50;40.87
50226;BME280;36113;50.742;6.432;2023-02-28T12:00:43;112741.81;;;-145.50;41.91
50226;BME280;36113;50.742;6.432;2023-02-28T12:08:49;112741.81;;;-145.50;41.08
50226;BME280;36113;50.742;6.432;2023-02-28T12:11:34;112741.81;;;-145.50;41.51
50226;BME280;36113;50.742;6.432;2023-02-28T12:14:24;112741.81;;;-145.50;40.69
50226;BME280;36113;50.742;6.432;2023-02-28T12:17:14;112741.81;;;-145.50;40.50
50226;BME280;36113;50.742;6.432;2023-02-28T12:22:55;112741.81;;;-145.50;41.40
50226;BME280;36113;50.742;6.432;2023-02-28T12:28:34;112741.81;;;-145.50;41.99
50226;BME280;36113;50.742;6.432;2023-02-28T12:31:09;112741.81;;;-145.50;42.16
50226;BME280;36113;50.742;6.432;2023-02-28T12:33:42;112741.81;;;-145.50;41.76
50226;BME280;36113;50.742;6.432;2023-02-28T12:36:14;112741.81;;;-145.50;41.43
50226;BME280;36113;50.742;6.432;2023-02-28T12:38:48;112741.81;;;-145.50;41.77
50226;BME280;36113;50.742;6.432;2023-02-28T12:44:07;112741.81;;;-145.50;41.55
50226;BME280;36113;50.742;6.432;2023-02-28T12:46:42;112741.81;;;-145.50;42.38
50226;BME280;36113;50.742;6.432;2023-02-28T12:49:14;112741.81;;;-145.50;41.72
50226;BME280;36113;50.742;6.432;2023-02-28T12:51:40;112741.81;;;-145.50;41.89
50226;BME280;36113;50.742;6.432;2023-02-28T12:57:09;112741.81;;;-145.50;41.18
50226;BME280;36113;50.742;6.432;2023-02-28T12:59:41;112741.81;;;-145.50;40.82
50226;BME280;36113;50.742;6.432;2023-02-28T13:02:37;112741.81;;;-145.50;40.58
50226;BME280;36113;50.742;6.432;2023-02-28T13:10:59;112741.81;;;-145.50;41.12
50226;BME280;36113;50.742;6.432;2023-02-28T13:13:27;112741.81;;;-145.50;41.12
50226;BME280;36113;50.742;6.432;2023-02-28T13:16:02;112741.81;;;-145.50;41.03
50226;BME280;36113;50.742;6.432;2023-02-28T13:18:38;112741.81;;;-145.50;40.87
50226;BME280;36113;50.742;6.432;2023-02-28T13:21:09;112741.81;;;-145.50;40.44
50226;BME280;36113;50.742;6.432;2023-02-28T13:23:41;112741.81;;;-145.50;40.43
50226;BME280;36113;50.742;6.432;2023-02-28T13:34:42;112741.81;;;-145.50;40.91
50226;BME280;36113;50.742;6.432;2023-02-28T13:39:49;112741.81;;;-145.50;40.24
50226;BME280;36113;50.742;6.432;2023-02-28T13:47:32;112741.81;;;-145.50;39.83
50226;BME280;36113;50.742;6.432;2023-02-28T13:52:52;112741.81;;;-145.50;40.04
50226;BME280;36113;50.742;6.432;2023-02-28T14:06:31;112741.81;;;-145.50;40.15
50226;BME280;36113;50.742;6.432;2023-02-28T14:11:32;112741.81;;;-145.50;40.07
50226;BME280;36113;50.742;6.432;2023-02-28T14:13:59;112741.81;;;-145.50;40.77
50226;BME280;36113;50.742;6.432;2023-02-28T14:16:47;112741.81;;;-145.50;40.45
50226;BME280;36113;50.742;6.432;2023-02-28T14:19:24;112741.81;;;-145.50;40.35
50226;BME280;36113;50.742;6.432;2023-02-28T14:22:17;112741.81;;;-145.50;40.14
50226;BME280;36113;50.742;6.432;2023-02-28T14:38:52;112741.81;;;-145.50;39.57
50226;BME280;36113;50.742;6.432;2023-02-28T14:41:40;112741.81;;;-145.50;40.49
50226;BME280;36113;50.742;6.432;2023-02-28T14:44:25;112741.81;;;-145.50;40.47